Impacts TAF Board INFO
FOR SITUATIONAL AWARENESS. NOT TO BE USED FOR FLIGHT PLANNING PURPOSES.
IDs:

KAXN - Alexandria/Chandler, MN, US

Issued at 2330 UTC 17 Oct 2017
Updated at 0351 UTC 18 Oct 2017
Potential Impact None Slight Moderate High
Time<<18/16Z 18/17Z 18/18Z 18/19Z 18/20Z 18/21Z 18/22Z 18/23Z 19/00Z 19/01Z 19/02Z 19/03Z 19/04Z>>
Type PRVL PRVL PRVL PRVL PRVL PRVL PRVL PRVL
VIS >6 >6 >6 >6 >6 >6 >6 >6
CIG -- -- -- -- -- -- -- --
Cover FEW FEW FEW FEW FEW FEW FEW FEW
FltCat VFR VFR VFR VFR VFR VFR VFR VFR
WX -- -- -- -- -- -- -- --
WDir 250 250 300 300 300 300 300 300
WSpd 13 13 16 16 16 16 16 16
WGst 21 21 24 24 24 24 24 24

Raw TAF
KAXN 172330Z 1800/1824 20008KT P6SM SKC
  FM180700 20009KT P6SM FEW250 WS020/23040KT
  FM181200 21010KT P6SM FEW250
  FM181500 25013G21KT P6SM FEW250
  FM181800 30016G24KT P6SM FEW250


METAR Board
Radar Display
Forecast Discussion

FOR SITUATIONAL AWARENESS. NOT TO BE USED FOR FLIGHT PLANNING PURPOSES.